Time;durP1;ratioP1;P1;durP2;ratioP2;P2;SDS_P1;SDS_P2;PMS_P1;PMS_P2;Temp;Humidity;BMP_temperature;BMP_pressure;BME280_temperature;BME280_humidity;BME280_pressure;Samples;Min_cycle;Max_cycle;Signal;HPM_P1;HPM_P2
2023/10/10 00:00:23;;;;;;;19.67;11.50;;;;;;;10.03;100.00;100736.00;5063671;28;20171;-84
2023/10/10 00:02:43;;;;;;;23.10;11.80;;;;;;;10.02;100.00;100737.25;5067982;28;20049;-83
2023/10/10 00:05:18;;;;;;;21.05;11.43;;;;;;;10.02;100.00;100742.97;5074913;28;20021;-84
2023/10/10 00:07:44;;;;;;;22.35;12.45;;;;;;;10.04;100.00;100746.13;5071581;28;20021;-81
2023/10/10 00:10:13;;;;;;;22.55;11.40;;;;;;;10.05;100.00;100735.50;5063077;28;20043;-84
2023/10/10 00:12:42;;;;;;;21.90;11.27;;;;;;;9.95;100.00;100716.81;5058085;28;20037;-84
2023/10/10 00:15:13;;;;;;;22.77;11.88;;;;;;;10.00;100.00;100727.56;5056572;28;20021;-85
2023/10/10 00:17:46;;;;;;;20.73;10.23;;;;;;;9.98;100.00;100727.28;5055276;28;20029;-82
2023/10/10 00:20:35;;;;;;;20.58;10.13;;;;;;;10.00;100.00;100731.22;5054838;28;20029;-84
2023/10/10 00:23:04;;;;;;;20.45;11.48;;;;;;;10.03;100.00;100732.34;5054434;28;20116;-83
2023/10/10 00:25:30;;;;;;;23.15;11.75;;;;;;;10.07;100.00;100735.81;5053233;28;20065;-84
2023/10/10 00:28:00;;;;;;;17.52;10.00;;;;;;;10.08;100.00;100723.94;5055607;28;20490;-83
2023/10/10 00:30:34;;;;;;;20.60;11.48;;;;;;;10.11;100.00;100728.66;5055375;28;20040;-83
2023/10/10 00:33:04;;;;;;;19.20;10.23;;;;;;;9.99;100.00;100697.44;5057053;28;20078;-83
2023/10/10 00:35:31;;;;;;;20.42;10.80;;;;;;;10.04;100.00;100709.00;5055441;28;20107;-84
2023/10/10 00:37:57;;;;;;;19.00;10.57;;;;;;;10.06;100.00;100720.75;5055691;28;20125;-82
2023/10/10 00:40:30;;;;;;;16.38;9.57;;;;;;;10.05;100.00;100719.16;5055395;28;20044;-82
2023/10/10 00:43:04;;;;;;;16.92;9.00;;;;;;;10.05;100.00;100733.44;5055807;28;20029;-82
2023/10/10 00:45:33;;;;;;;18.48;10.43;;;;;;;10.02;100.00;100720.13;5055529;28;20493;-82
2023/10/10 00:48:00;;;;;;;18.45;10.45;;;;;;;9.88;100.00;100700.03;5055292;28;20098;-84
2023/10/10 00:50:27;;;;;;;22.33;10.43;;;;;;;10.04;100.00;100729.00;5055288;28;20139;-81
2023/10/10 00:53:00;;;;;;;20.90;11.27;;;;;;;10.09;100.00;100731.19;5052302;28;20488;-79
2023/10/10 00:55:36;;;;;;;15.95;9.38;;;;;;;10.13;100.00;100727.41;5054314;28;20025;-79
2023/10/10 00:58:03;;;;;;;18.15;9.88;;;;;;;10.10;100.00;100723.44;5064925;28;20062;-79
2023/10/10 01:00:30;;;;;;;16.30;10.25;;;;;;;10.14;100.00;100724.06;5041365;28;20028;-78
2023/10/10 01:03:07;;;;;;;18.67;10.45;;;;;;;10.16;100.00;100726.44;5075639;28;20031;-79
2023/10/10 01:05:40;;;;;;;18.17;10.57;;;;;;;10.11;100.00;100720.09;5073122;28;20075;-81
2023/10/10 01:08:19;;;;;;;17.33;10.43;;;;;;;10.10;100.00;100723.44;5055617;28;20028;-81
2023/10/10 01:10:56;;;;;;;17.77;10.32;;;;;;;10.13;100.00;100725.34;5072141;28;20028;-81
2023/10/10 01:13:26;;;;;;;18.45;10.70;;;;;;;10.01;100.00;100697.75;5073352;28;20327;-80
2023/10/10 01:16:08;;;;;;;21.03;10.20;;;;;;;10.02;100.00;100705.06;5073143;28;20040;-80
2023/10/10 01:18:58;;;;;;;17.65;11.18;;;;;;;10.05;100.00;100716.31;5071937;28;20043;-81
2023/10/10 01:21:31;;;;;;;17.45;10.73;;;;;;;10.08;100.00;100723.94;5073101;28;20104;-82
2023/10/10 01:24:12;;;;;;;17.42;10.68;;;;;;;10.07;100.00;100722.34;5072936;28;20028;-80
2023/10/10 01:26:44;;;;;;;20.98;11.60;;;;;;;10.10;100.00;100726.28;5074098;28;20024;-79
2023/10/10 01:31:53;;;;;;;18.38;11.18;;;;;;;10.10;100.00;100718.50;5073825;28;20044;-80
2023/10/10 01:37:27;;;;;;;22.85;11.90;;;;;;;10.11;100.00;100717.25;5073542;28;20089;-80
2023/10/10 01:40:16;;;;;;;19.83;12.13;;;;;;;10.11;100.00;100711.53;5074041;28;20032;-80
2023/10/10 01:42:59;;;;;;;22.83;12.93;;;;;;;10.08;100.00;100717.44;5073956;28;20366;-78
2023/10/10 01:45:27;;;;;;;24.23;12.38;;;;;;;9.99;100.00;100708.84;5073943;28;20111;-79
2023/10/10 01:47:57;;;;;;;24.20;12.80;;;;;;;9.99;100.00;100709.66;5074281;28;20024;-79
2023/10/10 01:50:30;;;;;;;28.98;14.95;;;;;;;9.99;100.00;100706.00;5074013;28;20039;-80
2023/10/10 01:52:57;;;;;;;33.97;14.20;;;;;;;9.97;100.00;100708.56;5056269;28;20042;-78
2023/10/10 01:55:24;;;;;;;22.80;12.95;;;;;;;9.91;100.00;100697.00;5072672;28;20538;-80
2023/10/10 01:58:02;;;;;;;24.70;13.63;;;;;;;9.98;100.00;100718.72;5073754;28;20110;-81
2023/10/10 02:00:34;;;;;;;26.40;14.90;;;;;;;9.99;100.00;100712.50;5073703;28;20489;-79
2023/10/10 02:03:18;;;;;;;26.30;14.55;;;;;;;10.02;100.00;100708.72;5057222;28;20519;-81
2023/10/10 02:05:45;;;;;;;29.70;15.00;;;;;;;10.04;100.00;100703.28;5056126;28;20027;-78
2023/10/10 02:08:31;;;;;;;29.92;15.98;;;;;;;10.06;100.00;100709.34;5072941;28;20036;-79
2023/10/10 02:11:02;;;;;;;27.63;14.68;;;;;;;10.06;100.00;100700.75;5073371;28;20056;-79
2023/10/10 02:13:33;;;;;;;25.17;15.23;;;;;;;10.08;100.00;100703.94;5056546;28;20120;-80
2023/10/10 02:15:59;;;;;;;27.95;15.65;;;;;;;10.10;100.00;100712.81;5073439;28;20102;-78
2023/10/10 02:18:39;;;;;;;27.27;14.43;;;;;;;10.15;100.00;100704.84;5072207;28;20078;-79
2023/10/10 02:21:31;;;;;;;29.98;15.35;;;;;;;10.16;100.00;100715.81;5070584;28;20033;-79
2023/10/10 02:26:51;;;;;;;31.25;17.38;;;;;;;10.23;100.00;100723.25;5072864;28;20071;-79
2023/10/10 02:29:21;;;;;;;29.55;15.98;;;;;;;10.21;100.00;100712.31;5071731;28;20474;-79
2023/10/10 02:31:56;;;;;;;29.25;14.65;;;;;;;10.17;100.00;100685.19;5072800;28;20458;-79
2023/10/10 02:34:37;;;;;;;28.13;14.20;;;;;;;10.14;100.00;100698.34;5071731;28;20020;-79
2023/10/10 02:39:42;;;;;;;28.30;15.20;;;;;;;10.08;100.00;100708.88;5072753;28;20029;-80
2023/10/10 02:42:18;;;;;;;36.50;16.63;;;;;;;10.06;100.00;100717.09;5054760;28;20107;-79
2023/10/10 02:44:57;;;;;;;32.22;15.55;;;;;;;10.06;100.00;100722.81;5073620;28;20041;-80
2023/10/10 02:47:44;;;;;;;27.55;14.55;;;;;;;10.05;100.00;100727.72;5073640;28;20032;-81
2023/10/10 02:50:15;;;;;;;29.15;14.70;;;;;;;10.08;100.00;100729.66;5080041;28;20028;-79
2023/10/10 02:52:46;;;;;;;32.72;16.85;;;;;;;10.11;100.00;100730.72;5078203;28;20377;-79
2023/10/10 02:55:14;;;;;;;34.10;16.80;;;;;;;10.13;100.00;100741.69;5080515;28;20373;-80
2023/10/10 02:57:41;;;;;;;33.13;15.90;;;;;;;10.06;100.00;100722.81;5058163;28;20135;-80
2023/10/10 03:02:53;;;;;;;32.60;15.88;;;;;;;10.12;100.00;100732.31;5058811;28;20024;-78
2023/10/10 03:05:37;;;;;;;31.83;15.35;;;;;;;10.14;100.00;100729.75;5058905;28;20150;-79
2023/10/10 03:08:18;;;;;;;26.10;14.55;;;;;;;10.17;100.00;100733.75;5059806;28;20035;-80
2023/10/10 03:11:00;;;;;;;28.13;14.13;;;;;;;10.18;100.00;100735.31;5058196;28;20025;-80
2023/10/10 03:13:57;;;;;;;33.65;15.63;;;;;;;10.17;100.00;100734.53;5059189;28;20075;-80
2023/10/10 03:22:20;;;;;;;26.75;14.95;;;;;;;10.23;100.00;100738.34;5057921;28;20335;-80
2023/10/10 03:29:46;;;;;;;31.25;15.32;;;;;;;10.24;100.00;100737.03;5058365;28;20044;-79
2023/10/10 03:35:04;;;;;;;26.95;15.02;;;;;;;10.28;100.00;100734.03;5058921;28;20025;-78
2023/10/10 03:37:40;;;;;;;32.25;14.77;;;;;;;10.32;100.00;100751.78;5058756;28;20032;-78
2023/10/10 05:24:48;;;;;;;36.47;18.63;;;;;;;10.41;100.00;100743.97;5095599;28;20031;-82
2023/10/10 05:27:13;;;;;;;;;;;;;;;10.30;100.00;100705.75;5076254;28;20039;-82
2023/10/10 05:29:43;;;;;;;41.63;18.95;;;;;;;10.40;100.00;100724.47;5074945;28;19916;-84
2023/10/10 05:32:08;;;;;;;41.60;18.20;;;;;;;10.41;100.00;100728.91;5092997;28;20032;-85
2023/10/10 05:34:37;;;;;;;43.65;18.88;;;;;;;10.43;100.00;100729.22;5093382;28;20491;-84
2023/10/10 05:37:06;;;;;;;41.08;19.42;;;;;;;10.47;100.00;100733.50;5093301;28;20038;-82
2023/10/10 05:39:32;;;;;;;44.33;21.20;;;;;;;10.54;100.00;100738.06;5093431;28;20024;-85
2023/10/10 05:42:01;;;;;;;39.42;19.27;;;;;;;10.60;100.00;100746.75;5074159;28;20034;-83
2023/10/10 05:44:26;;;;;;;39.08;20.15;;;;;;;10.59;100.00;100733.75;5095337;28;20024;-83
2023/10/10 05:46:52;;;;;;;44.70;21.00;;;;;;;10.71;100.00;100747.84;5095765;28;20544;-87
2023/10/10 05:49:18;;;;;;;40.45;19.92;;;;;;;10.77;100.00;100750.84;5094516;28;20036;-86
2023/10/10 05:51:44;;;;;;;43.88;20.33;;;;;;;10.75;100.00;100747.66;5079708;28;20023;-82
2023/10/10 05:54:18;;;;;;;42.65;20.40;;;;;;;10.79;100.00;100748.25;5076033;28;20205;-82
2023/10/10 05:56:46;;;;;;;43.92;21.77;;;;;;;10.78;100.00;100738.88;5095197;28;20052;-82
2023/10/10 05:59:12;;;;;;;38.17;19.52;;;;;;;10.87;100.00;100749.50;5078120;28;20086;-80
2023/10/10 06:01:38;;;;;;;42.75;19.67;;;;;;;10.91;100.00;100752.97;5097993;28;20028;-81
2023/10/10 06:04:05;;;;;;;39.60;19.13;;;;;;;10.93;100.00;100756.94;5094850;28;20024;-81
2023/10/10 06:06:36;;;;;;;38.40;19.55;;;;;;;10.87;100.00;100741.72;5093331;28;20594;-82
2023/10/10 06:09:19;;;;;;;41.95;20.23;;;;;;;10.99;100.00;100755.00;5092694;28;20032;-81
2023/10/10 06:11:50;;;;;;;39.47;19.92;;;;;;;10.95;100.00;100756.44;5092562;28;20418;-80
2023/10/10 06:14:19;;;;;;;39.30;18.75;;;;;;;11.10;100.00;100760.19;5092785;28;20112;-82
2023/10/10 06:16:47;;;;;;;40.50;18.85;;;;;;;11.13;100.00;100773.53;5092655;28;20059;-81
2023/10/10 06:19:20;;;;;;;41.40;17.92;;;;;;;11.19;100.00;100767.94;5090667;28;20040;-82
2023/10/10 06:21:47;;;;;;;38.33;19.65;;;;;;;11.20;100.00;100784.63;5094118;28;20032;-82
2023/10/10 06:24:12;;;;;;;44.88;18.63;;;;;;;11.17;100.00;100779.84;5092846;28;20027;-83
2023/10/10 06:26:46;;;;;;;36.55;18.35;;;;;;;11.16;100.00;100766.84;5092896;28;20020;-80
2023/10/10 06:29:13;;;;;;;35.50;16.92;;;;;;;11.25;100.00;100783.97;5099203;28;20058;-82
2023/10/10 06:31:57;;;;;;;35.72;17.95;;;;;;;11.21;100.00;100771.13;5101321;28;20020;-82
2023/10/10 06:34:25;;;;;;;39.03;17.90;;;;;;;11.30;100.00;100797.59;5101851;28;20045;-82
2023/10/10 06:36:52;;;;;;;38.80;18.80;;;;;;;11.25;100.00;100778.25;5097112;28;20093;-80
2023/10/10 06:39:19;;;;;;;38.63;19.15;;;;;;;11.32;100.00;100783.59;5079016;28;20038;-80
2023/10/10 06:42:03;;;;;;;44.83;20.52;;;;;;;11.25;100.00;100766.00;5081428;28;20089;-80
2023/10/10 06:44:35;;;;;;;37.08;19.27;;;;;;;11.38;100.00;100784.50;5099103;28;20461;-82
2023/10/10 06:47:11;;;;;;;38.80;18.17;;;;;;;11.51;100.00;100794.94;5094912;28;20422;-81
2023/10/10 06:49:46;;;;;;;34.78;17.45;;;;;;;11.53;100.00;100801.72;5079152;28;20048;-81
2023/10/10 06:52:19;;;;;;;38.50;19.45;;;;;;;11.53;100.00;100798.06;5061428;28;20074;-81
2023/10/10 06:54:53;;;;;;;40.58;19.27;;;;;;;11.50;100.00;100782.69;5075739;28;20381;-80
2023/10/10 06:57:35;;;;;;;39.13;19.05;;;;;;;11.45;100.00;100794.81;5060365;28;20047;-82
2023/10/10 07:00:20;;;;;;;;;;;;;;;11.51;100.00;100798.59;5093546;28;20440;-81
2023/10/10 07:03:19;;;;;;;38.67;18.08;;;;;;;11.59;100.00;100796.94;5089366;28;20288;-83
2023/10/10 07:05:45;;;;;;;36.00;17.95;;;;;;;11.63;100.00;100806.13;5074405;28;20035;-82
2023/10/10 07:08:13;;;;;;;35.72;17.98;;;;;;;11.59;100.00;100794.06;5075674;28;20110;-82
2023/10/10 07:10:42;;;;;;;41.03;19.40;;;;;;;11.72;100.00;100808.09;5093089;28;20104;-82
2023/10/10 07:13:19;;;;;;;37.42;18.45;;;;;;;11.77;100.00;100807.44;5059185;28;20032;-82
2023/10/10 07:15:52;;;;;;;38.28;18.77;;;;;;;11.85;100.00;100802.94;5093217;28;20048;-82
2023/10/10 07:18:27;;;;;;;38.25;17.40;;;;;;;11.90;100.00;100799.41;5090600;28;20043;-82
2023/10/10 07:21:08;;;;;;;34.63;16.70;;;;;;;11.94;100.00;100799.19;5077116;28;20051;-82
2023/10/10 07:23:37;;;;;;;34.27;17.13;;;;;;;11.97;100.00;100801.84;5094326;28;20016;-82
2023/10/10 07:26:05;;;;;;;39.78;18.20;;;;;;;11.91;100.00;100795.25;5075337;28;20024;-82
2023/10/10 07:28:47;;;;;;;33.80;16.52;;;;;;;11.92;100.00;100801.75;5092805;28;20036;-81
2023/10/10 07:31:17;;;;;;;;;;;;;;;11.82;100.00;100803.91;5078013;28;20097;-82
2023/10/10 07:34:04;;;;;;;37.70;17.55;;;;;;;11.69;100.00;100798.44;5074887;28;19908;-80
2023/10/10 07:36:31;;;;;;;36.63;16.50;;;;;;;11.62;100.00;100807.38;5076786;28;20028;-82
2023/10/10 07:41:45;;;;;;;35.67;15.43;;;;;;;11.53;100.00;100807.47;5081414;28;20508;-83
2023/10/10 07:44:26;;;;;;;32.15;16.00;;;;;;;11.51;100.00;100806.38;5079082;28;20077;-83
2023/10/10 07:49:35;;;;;;;29.73;14.18;;;;;;;11.47;100.00;100811.50;5081329;28;20064;-83
2023/10/10 07:52:02;;;;;;;34.22;15.10;;;;;;;11.45;100.00;100803.38;5078658;28;20024;-81
2023/10/10 07:54:38;;;;;;;29.00;13.32;;;;;;;11.54;100.00;100811.13;5078167;28;20028;-82
2023/10/10 07:57:17;;;;;;;27.65;14.07;;;;;;;11.63;100.00;100808.19;5079367;28;20039;-81
2023/10/10 07:59:58;;;;;;;25.27;12.50;;;;;;;11.67;100.00;100811.66;5096417;28;20023;-81
2023/10/10 08:02:26;;;;;;;28.65;14.00;;;;;;;11.66;100.00;100793.69;5078829;28;20048;-82
2023/10/10 08:04:55;;;;;;;25.80;12.77;;;;;;;11.62;100.00;100773.03;5062449;28;20120;-82
2023/10/10 08:07:23;;;;;;;30.38;13.65;;;;;;;11.69;100.00;100791.91;5079663;28;20080;-82
2023/10/10 08:09:49;;;;;;;23.65;12.40;;;;;;;11.86;100.00;100789.41;5062101;28;20028;-82
2023/10/10 08:12:23;;;;;;;22.90;12.73;;;;;;;12.06;100.00;100818.19;5096298;28;20050;-81
2023/10/10 08:14:54;;;;;;;23.08;11.88;;;;;;;12.15;100.00;100816.03;5097194;28;20028;-83
2023/10/10 08:17:25;;;;;;;22.63;11.50;;;;;;;12.21;100.00;100814.06;5078994;28;20499;-80
2023/10/10 08:19:53;;;;;;;20.55;12.18;;;;;;;12.40;100.00;100820.44;5096064;28;20527;-83
2023/10/10 08:22:40;;;;;;;24.35;12.60;;;;;;;12.61;100.00;100816.38;5096416;28;20032;-83
2023/10/10 08:25:05;;;;;;;20.73;11.88;;;;;;;12.63;100.00;100813.03;5093845;28;20094;-82
2023/10/10 08:27:33;;;;;;;21.90;11.95;;;;;;;12.75;100.00;100811.16;5096231;28;20024;-83
2023/10/10 08:29:58;;;;;;;22.17;11.75;;;;;;;12.69;100.00;100793.84;5096110;28;20028;-82
2023/10/10 08:32:26;;;;;;;23.02;11.93;;;;;;;12.77;100.00;100797.88;5095652;28;20080;-82
2023/10/10 08:34:53;;;;;;;23.38;11.98;;;;;;;12.67;100.00;100771.41;5062044;28;20020;-82
2023/10/10 08:37:20;;;;;;;19.70;12.13;;;;;;;12.79;100.00;100794.53;5095698;28;20445;-83
2023/10/10 08:39:49;;;;;;;22.40;11.18;;;;;;;12.89;100.00;100802.53;5096410;28;20085;-82
2023/10/10 08:42:16;;;;;;;23.40;12.38;;;;;;;13.08;100.00;100817.41;5095783;28;20485;-83
2023/10/10 08:44:47;;;;;;;24.48;13.02;;;;;;;13.18;100.00;100809.47;5077718;28;20158;-83
2023/10/10 08:47:19;;;;;;;24.88;12.13;;;;;;;13.36;100.00;100812.88;5077863;28;20039;-81
2023/10/10 08:49:47;;;;;;;23.63;14.43;;;;;;;13.50;100.00;100811.25;5061451;28;20392;-82
2023/10/10 08:52:16;;;;;;;24.13;13.18;;;;;;;13.66;100.00;100807.84;5078254;28;20038;-83
2023/10/10 08:54:57;;;;;;;24.40;13.15;;;;;;;13.75;100.00;100801.94;5095162;28;20109;-82
2023/10/10 08:57:27;;;;;;;25.13;13.35;;;;;;;13.86;100.00;100809.91;5073690;28;20052;-82
2023/10/10 08:59:52;;;;;;;24.83;13.60;;;;;;;13.98;100.00;100797.28;5073579;28;20115;-83
2023/10/10 09:02:19;;;;;;;28.75;13.63;;;;;;;14.11;100.00;100805.50;5073765;28;20116;-83
2023/10/10 09:04:50;;;;;;;27.05;15.60;;;;;;;14.26;100.00;100798.38;5074640;28;20024;-82
2023/10/10 09:07:32;;;;;;;26.58;13.43;;;;;;;14.37;100.00;100795.63;5073700;28;20074;-82
2023/10/10 09:10:13;;;;;;;28.90;14.55;;;;;;;14.47;100.00;100786.81;5080874;28;20469;-82
2023/10/10 09:13:01;;;;;;;31.05;15.18;;;;;;;14.70;100.00;100791.50;5083701;28;20018;-82
2023/10/10 09:15:30;;;;;;;32.03;14.90;;;;;;;14.97;100.00;100790.16;5077263;28;20059;-83
2023/10/10 09:18:32;;;;;;;33.03;15.13;;;;;;;15.04;100.00;100773.19;5074438;28;20086;-82
2023/10/10 09:21:18;;;;;;;30.70;15.18;;;;;;;15.38;100.00;100791.47;4980040;28;20360;-82
2023/10/10 09:23:52;;;;;;;28.02;14.90;;;;;;;15.49;100.00;100791.53;4997169;28;20071;-83
2023/10/10 09:26:29;;;;;;;32.38;15.27;;;;;;;15.56;100.00;100790.25;4997431;28;20056;-82
2023/10/10 09:29:00;;;;;;;34.63;16.63;;;;;;;15.71;100.00;100785.13;5038626;28;20058;-81
2023/10/10 09:31:26;;;;;;;37.13;18.02;;;;;;;15.98;100.00;100795.97;5074133;28;20096;-82
2023/10/10 09:33:57;;;;;;;28.00;15.50;;;;;;;16.10;100.00;100803.34;5072645;28;20094;-81
2023/10/10 09:36:50;;;;;;;33.53;17.50;;;;;;;16.16;100.00;100800.47;5056963;28;20038;-83
2023/10/10 09:39:37;;;;;;;33.75;16.70;;;;;;;16.19;100.00;100810.19;5073922;28;20025;-83
2023/10/10 09:47:55;;;;;;;30.30;15.85;;;;;;;16.19;100.00;100779.25;5075145;28;20068;-82
2023/10/10 09:52:58;;;;;;;35.08;16.33;;;;;;;16.43;100.00;100819.16;5073930;28;20037;-81
2023/10/10 10:06:25;;;;;;;28.63;15.25;;;;;;;16.69;100.00;100827.63;5073361;28;20035;-82
2023/10/10 10:09:08;;;;;;;29.00;16.08;;;;;;;16.80;100.00;100825.50;5072738;28;20028;-82
2023/10/10 10:11:44;;;;;;;31.75;16.15;;;;;;;16.91;100.00;100822.63;5073722;28;20021;-82
2023/10/10 10:14:28;;;;;;;31.83;16.48;;;;;;;17.02;100.00;100809.50;5076734;28;20091;-85
2023/10/10 10:17:26;;;;;;;30.80;15.32;;;;;;;17.07;100.00;100797.97;5074155;28;20058;-85
2023/10/10 10:20:12;;;;;;;33.50;19.30;;;;;;;17.29;100.00;100805.81;5075740;28;20108;-83
2023/10/10 10:22:42;;;;;;;28.95;14.68;;;;;;;17.26;100.00;100801.88;5074119;28;20070;-83
2023/10/10 10:25:21;;;;;;;31.88;15.20;;;;;;;17.24;100.00;100800.84;5075329;28;20033;-81
2023/10/10 10:27:49;;;;;;;30.75;13.77;;;;;;;17.19;100.00;100801.63;5059496;28;20029;-85
2023/10/10 10:32:55;;;;;;;25.92;13.20;;;;;;;17.32;100.00;100804.75;5073700;28;20040;-82
2023/10/10 10:35:22;;;;;;;25.15;13.00;;;;;;;17.32;100.00;100802.66;5072452;28;20020;-83
2023/10/10 10:37:58;;;;;;;24.98;13.32;;;;;;;17.34;100.00;100797.13;5073495;28;20082;-82
2023/10/10 10:43:05;;;;;;;22.58;12.57;;;;;;;17.36;100.00;100794.50;5073435;28;20035;-81
2023/10/10 10:45:36;;;;;;;23.40;12.07;;;;;;;17.38;100.00;100800.53;5056207;28;20119;-81
2023/10/10 10:51:32;;;;;;;22.33;11.90;;;;;;;17.30;100.00;100790.03;5073851;28;20066;-82
2023/10/10 10:53:59;;;;;;;23.50;11.50;;;;;;;17.21;100.00;100790.31;5074281;28;20470;-82
2023/10/10 10:59:20;;;;;;;21.83;11.50;;;;;;;17.32;100.00;100776.66;5113254;28;20040;-80
2023/10/10 11:01:57;;;;;;;20.30;11.10;;;;;;;17.36;100.00;100767.69;5115360;28;20054;-81
2023/10/10 11:07:07;;;;;;;20.20;10.85;;;;;;;17.56;100.00;100790.53;5114672;28;20086;-81
2023/10/10 11:09:52;;;;;;;18.45;9.65;;;;;;;17.54;100.00;100792.38;5083095;28;20028;-84
2023/10/10 11:12:22;;;;;;;17.95;9.00;;;;;;;17.55;100.00;100777.41;5091351;28;20028;-85
2023/10/10 11:14:49;;;;;;;17.00;9.18;;;;;;;17.60;100.00;100791.03;5081671;28;20048;-87
2023/10/10 11:17:19;;;;;;;12.63;7.68;;;;;;;17.70;100.00;100794.41;5080169;28;20031;-82
2023/10/10 11:19:56;;;;;;;13.65;7.90;;;;;;;17.67;100.00;100778.94;5064727;28;20107;-83
2023/10/10 11:22:40;;;;;;;12.77;6.57;;;;;;;17.80;100.00;100775.47;5099050;28;20040;-84
2023/10/10 11:25:08;;;;;;;12.82;6.13;;;;;;;17.91;100.00;100781.19;5065241;28;20119;-83
2023/10/10 11:27:51;;;;;;;10.18;6.75;;;;;;;17.93;100.00;100780.69;5097549;28;20077;-82
2023/10/10 11:30:24;;;;;;;11.10;6.75;;;;;;;17.95;100.00;100775.13;5079690;28;20032;-85
2023/10/10 11:32:52;;;;;;;10.93;6.22;;;;;;;17.87;100.00;100769.13;5080910;28;20055;-82
2023/10/10 11:35:25;;;;;;;11.27;6.45;;;;;;;17.88;100.00;100778.59;5097907;28;20019;-82
2023/10/10 11:38:09;;;;;;;7.05;5.43;;;;;;;17.89;100.00;100788.81;5063939;28;20035;-82
2023/10/10 11:41:08;;;;;;;9.73;6.18;;;;;;;17.82;100.00;100773.63;5084080;28;20020;-83
2023/10/10 11:43:37;;;;;;;8.88;5.40;;;;;;;17.83;100.00;100780.94;5081411;28;20065;-81
2023/10/10 11:46:20;;;;;;;8.57;5.47;;;;;;;17.68;100.00;100777.63;5079410;28;20383;-83
2023/10/10 11:48:47;;;;;;;8.27;5.05;;;;;;;17.63;100.00;100778.44;5097540;28;20028;-84
2023/10/10 11:51:14;;;;;;;9.00;5.72;;;;;;;17.73;100.00;100782.56;5097006;28;20035;-83
2023/10/10 11:53:46;;;;;;;9.18;5.13;;;;;;;17.74;100.00;100769.69;5096788;28;20473;-83
2023/10/10 11:56:17;;;;;;;8.00;5.20;;;;;;;17.88;100.00;100775.69;5079050;28;20013;-82
2023/10/10 11:58:49;;;;;;;11.13;5.15;;;;;;;17.89;100.00;100783.03;5096166;28;20040;-81
2023/10/10 12:01:31;;;;;;;6.35;4.07;;;;;;;17.86;100.00;100784.91;5096167;28;20032;-81
2023/10/10 12:04:07;;;;;;;6.50;4.45;;;;;;;17.84;100.00;100776.75;5096770;28;20030;-83
2023/10/10 12:06:36;;;;;;;7.57;4.80;;;;;;;17.86;100.00;100778.31;5097783;28;20028;-83
2023/10/10 12:09:06;;;;;;;10.50;4.45;;;;;;;17.73;100.00;100781.81;5105375;28;20058;-83
2023/10/10 12:11:33;;;;;;;6.50;4.03;;;;;;;17.61;100.00;100778.16;5098198;28;20043;-81
2023/10/10 12:13:59;;;;;;;4.90;3.70;;;;;;;17.46;100.00;100760.34;5095598;28;20489;-81
2023/10/10 12:16:24;;;;;;;8.30;4.18;;;;;;;17.56;100.00;100781.84;5096244;28;20020;-81
2023/10/10 12:18:52;;;;;;;6.05;4.13;;;;;;;17.63;100.00;100789.22;5102178;28;20376;-82
2023/10/10 12:21:31;;;;;;;6.03;3.50;;;;;;;17.62;100.00;100784.75;5081066;28;20016;-82
2023/10/10 12:23:57;;;;;;;5.18;3.63;;;;;;;17.61;100.00;100783.94;5105881;28;20067;-83
2023/10/10 12:26:26;;;;;;;5.20;3.42;;;;;;;17.73;100.00;100793.38;5064114;28;20461;-85
2023/10/10 12:28:59;;;;;;;6.50;3.40;;;;;;;17.72;100.00;100791.78;5079852;28;20028;-87
2023/10/10 12:31:26;;;;;;;5.18;3.33;;;;;;;17.70;100.00;100794.41;5098537;28;20133;-84
2023/10/10 12:33:55;;;;;;;6.68;4.15;;;;;;;17.61;100.00;100783.94;5096927;28;20530;-82
2023/10/10 12:36:22;;;;;;;3.78;3.13;;;;;;;17.59;100.00;100789.47;5097673;28;20477;-83
2023/10/10 12:38:48;;;;;;;4.90;3.55;;;;;;;17.55;100.00;100788.16;5060996;28;20050;-78
2023/10/10 12:41:20;;;;;;;6.05;3.42;;;;;;;17.48;100.00;100789.50;5078185;28;20032;-79
2023/10/10 12:43:47;;;;;;;6.13;3.20;;;;;;;17.40;100.00;100782.66;5063419;28;20028;-83
2023/10/10 12:46:17;;;;;;;3.28;2.90;;;;;;;17.43;100.00;100778.72;5092891;28;20113;-84
2023/10/10 12:48:57;;;;;;;5.70;3.30;;;;;;;17.36;100.00;100761.94;5096495;28;20105;-82
2023/10/10 12:51:23;;;;;;;6.03;3.90;;;;;;;17.38;100.00;100760.09;5078871;28;20028;-84
2023/10/10 12:54:05;;;;;;;6.30;3.25;;;;;;;17.32;100.00;100759.31;5095767;28;20043;-83
2023/10/10 12:56:38;;;;;;;3.93;3.13;;;;;;;17.35;100.00;100766.13;5095440;28;20610;-82
2023/10/10 12:59:07;;;;;;;4.50;3.15;;;;;;;17.49;100.00;100767.94;5095514;28;20722;-83
2023/10/10 13:01:35;;;;;;;4.60;3.22;;;;;;;17.71;100.00;100767.88;5061119;28;20502;-80
2023/10/10 13:04:07;;;;;;;5.05;3.47;;;;;;;17.90;100.00;100765.16;5060958;28;20028;-84
2023/10/10 13:06:35;;;;;;;4.82;2.67;;;;;;;18.08;100.00;100755.09;5095097;28;20024;-82
2023/10/10 13:09:08;;;;;;;4.88;3.75;;;;;;;18.20;100.00;100762.38;5078091;28;20505;-83
2023/10/10 13:11:43;;;;;;;2.80;2.50;;;;;;;18.22;100.00;100763.41;5096509;28;20380;-82
2023/10/10 13:14:14;;;;;;;9.93;3.65;;;;;;;18.23;100.00;100759.19;5077086;28;20031;-84
2023/10/10 13:17:28;;;;;;;6.53;2.55;;;;;;;18.27;100.00;100751.03;5094429;28;20122;-82
2023/10/10 13:19:42;;;;;;;4.38;2.97;;;;;;;18.34;100.00;100767.03;5093901;28;20032;-80
2023/10/10 13:22:08;;;;;;;5.40;2.95;;;;;;;18.41;100.00;100754.91;5076034;28;20055;-84
2023/10/10 13:24:34;;;;;;;2.70;2.50;;;;;;;18.51;100.00;100753.25;5093763;28;20051;-77
2023/10/10 13:27:01;;;;;;;3.40;2.60;;;;;;;18.69;100.00;100760.47;5094233;28;20024;-79
2023/10/10 13:29:28;;;;;;;3.65;2.33;;;;;;;18.76;100.00;100750.41;5092320;28;20047;-84
2023/10/10 13:31:54;;;;;;;3.28;2.42;;;;;;;18.78;100.00;100736.94;5094513;28;20016;-84
2023/10/10 13:34:23;;;;;;;2.70;2.42;;;;;;;18.95;100.00;100748.38;5075867;28;20427;-83
2023/10/10 13:36:49;;;;;;;5.47;2.70;;;;;;;19.04;100.00;100745.13;5093516;28;20027;-79
2023/10/10 13:39:17;;;;;;;3.50;2.58;;;;;;;18.95;100.00;100740.50;5075664;28;20024;-78
2023/10/10 13:41:48;;;;;;;5.05;2.60;;;;;;;18.79;100.00;100737.72;5093058;28;20039;-82
2023/10/10 13:44:18;;;;;;;5.07;3.03;;;;;;;18.62;100.00;100735.00;5074537;28;20024;-83
2023/10/10 13:46:46;;;;;;;3.00;2.10;;;;;;;18.37;100.00;100737.03;5094164;28;20031;-83
2023/10/10 13:49:13;;;;;;;3.22;2.15;;;;;;;18.15;100.00;100745.81;5076151;28;20024;-81
2023/10/10 13:51:40;;;;;;;3.40;1.73;;;;;;;17.95;100.00;100735.44;5076113;28;20038;-78
2023/10/10 13:54:13;;;;;;;2.95;2.10;;;;;;;17.87;100.00;100734.44;5093595;28;20465;-79
2023/10/10 13:56:47;;;;;;;2.97;2.50;;;;;;;17.81;100.00;100746.03;5076129;28;20028;-79
2023/10/10 13:59:17;;;;;;;3.53;2.10;;;;;;;17.72;100.00;100734.78;5074938;28;20082;-77
2023/10/10 14:01:43;;;;;;;2.58;2.30;;;;;;;17.50;100.00;100714.63;5058566;28;20060;-78
2023/10/10 14:04:23;;;;;;;1.75;1.60;;;;;;;17.61;100.00;100737.69;5091979;28;20026;-79
2023/10/10 14:06:50;;;;;;;2.05;1.77;;;;;;;17.58;100.00;100738.00;5093353;28;20028;-78
2023/10/10 14:09:22;;;;;;;2.85;2.20;;;;;;;17.56;100.00;100732.72;5091224;28;20493;-78
2023/10/10 14:11:50;;;;;;;3.22;2.42;;;;;;;17.60;100.00;100735.34;5076044;28;20358;-79
2023/10/10 14:14:16;;;;;;;5.68;3.00;;;;;;;17.58;100.00;100730.09;5074964;28;20036;-77
2023/10/10 14:16:42;;;;;;;5.03;2.53;;;;;;;17.54;100.00;100715.13;5093269;28;20024;-78
2023/10/10 14:19:10;;;;;;;4.50;3.00;;;;;;;17.57;100.00;100713.28;5074971;28;20039;-77
2023/10/10 14:21:38;;;;;;;4.30;2.40;;;;;;;17.58;100.00;100730.09;5093209;28;20531;-78